x

New Dungeness - 17 Nm Ne Of Port Angeles, Wa (46088) Wave Buoy

11:20pm - Fri 29th Aug 2014 All times are PDT. -7 hours from GMT.

  • Sig Wave height 0.7ft
  • Average Period 3s
  • Wind
    9mph, 11mph gusts
  • Sea Temp 54°f
  • Air Temp 56°f
  • Sea Pressure 1013.9mb
  • New Dungeness - 17 Nm Ne Of Port Angeles, Wa
  • New Dungeness - 17 Nm Ne Of Port Angeles, Wa

More Historic Weather Station data

Upgrade to MSW Pro to gain access to the past 30 days of data for over 8000 Wavebouys and Weather Stations around the globe.

Join Pro

Comparision Forecast

View Surf forecast
   
Fri 08/29 11:20pm 0.7ft  -  3s 9 11 mph 1013.9mb 54f 56f
10:50pm 0.7ft  -  3s 11 13 mph 1013.7mb 54f 56f
10:20pm 0.3ft  -  3s 11
mph
1014mb 54f 57f
9:50pm 0.3ft  -  3s 9 11 mph 1014.1mb 53f 56f
9:20pm 0.3ft  -  3s 7 9 mph 1014.4mb 53f 56f
8:50pm 0.3ft  -  3s 9
mph
1014.2mb 53f 56f
8:20pm 0.3ft  -  3s 13
mph
1014mb 53f 56f
7:50pm 0.3ft  -  4s 11
mph
1014mb 53f 56f
7:20pm 0.7ft  -  4s 9
mph
1014.2mb 54f 56f
6:50pm 0.3ft  -  4s 4
mph
1014.5mb 54f 55f
6:20pm 0.3ft  -  4s 7
mph
1014.6mb 54f 56f
5:50pm 0.3ft  -  3s 9 11 mph 1014.5mb 55f 56f
5:20pm 0.3ft  -  3s 7
mph
1014.7mb 55f 57f
4:50pm 0.3ft  -  4s 4
mph
1014.8mb 56f 58f
3:50pm 0.7ft  -  4s 2 4 mph 1015.2mb 55f 57f
3:20pm 0.7ft  -  4s 4
mph
1015.2mb 55f 56f
2:50pm 0.3ft  -  3s 4 7 mph 1015.4mb 54f 56f
2:20pm 0.3ft  -  3s 4
mph
1015.4mb 54f 56f
1:50pm 0.7ft  -  3s 4 7 mph 1015.4mb 54f 55f
1:20pm 0.7ft  -  3s 7
mph
1015.4mb 53f 55f
12:50pm 0.7ft  -  3s 7
mph
1015.3mb 53f 55f
12:20pm 0.7ft  -  3s 7 9 mph 1015.4mb 53f 54f
11:50am 0.7ft  -  3s 7
mph
1015.2mb 53f 54f
11:20am 0.7ft  -  3s 9
mph
1015.2mb 53f 54f
10:50am 0.7ft  -  3s 9 11 mph 1014.9mb 53f 54f
10:20am 0.7ft  -  3s 9 11 mph 1014.9mb 53f 54f
9:50am 1ft 3s 3s 13 16 mph 1014.8mb 53f 55f
9:20am 0.7ft  -  3s 13 18 mph 1014.9mb 53f 55f
8:50am 1ft 3s 3s 13 16 mph 1014.7mb 53f 54f
8:20am 1ft 3s 3s 13 16 mph 1014.8mb 53f 54f
7:50am 0.7ft  -  3s 13 18 mph 1014.8mb 53f 54f
7:20am 1ft 2s 3s 16 18 mph 1014.6mb 53f 54f
6:50am 1.3ft 3s 3s 16 20 mph 1014.3mb 53f 54f
6:20am 1.3ft 3s 3s 13 16 mph 1014.3mb 53f 54f
5:50am 1.6ft 3s 3s 20 22 mph 1014mb 53f 55f
5:20am 1.6ft 3s 3s 20 25 mph 1014.1mb 53f 55f
4:50am 2ft 4s 3s 20 22 mph 1014.2mb 53f 55f
4:20am 2ft 3s 3s 20 22 mph 1014.4mb 53f 55f
3:50am 2.5ft 4s 4s 18 22 mph 1014.6mb 53f 55f
3:20am 2ft 4s 4s 16 20 mph 1014.8mb 53f 55f
2:50am 2ft 5s 4s 20 22 mph 1014.9mb 53f 55f
2:20am 2ft 4s 4s 20 25 mph 1015.1mb 53f 55f
1:50am 1.6ft 4s 4s 20 25 mph 1015.2mb 53f 55f
1:20am 1.6ft 4s 4s 20 25 mph 1015.2mb 53f 55f
12:50am 1.6ft 4s 4s 18 20 mph 1015.5mb 53f 55f
12:20am 1.3ft 4s 4s 18 22 mph 1015.7mb 53f 55f
Thu 08/28 11:50pm 1.6ft 4s 4s 16 20 mph 1015.7mb 53f 55f
11:20pm 1.3ft 4s 4s 18 20 mph 1016.1mb 53f 55f
10:50pm 1.6ft 4s 4s 16 20 mph 1016.2mb 53f 55f
10:20pm 1.3ft 4s 3s 16 20 mph 1016.4mb 53f 55f
9:50pm 1.3ft 4s 3s 16 20 mph 1016.6mb 53f 55f
9:20pm 1.3ft 3s 3s 16 18 mph 1016.8mb 53f 55f
8:50pm 1.3ft 3s 3s 16 20 mph 1016.8mb 53f 55f
8:20pm 1.3ft 3s 3s 16 22 mph 1016.8mb 53f 56f
7:50pm 1.3ft 3s 3s 16 18 mph 1016.7mb 53f 56f
7:20pm 1.3ft 3s 3s 16 18 mph 1016.8mb 53f 56f
6:50pm 1.3ft 3s 3s 16 20 mph 1016.7mb 54f 57f
6:20pm 1.3ft 3s 3s 16 18 mph 1016.9mb 54f 58f
5:50pm 1.3ft 3s 3s 16 18 mph 1017mb 55f 58f
5:20pm 1.3ft 3s 3s 13 16 mph 1017.2mb 55f 58f
4:50pm 1.3ft 3s 3s 13 16 mph 1017.4mb 55f 58f
4:20pm 0.7ft  -  3s 11 13 mph 1017.8mb 54f 58f
3:50pm 0.7ft  -  3s 11 13 mph 1018.2mb 54f 59f
3:20pm 0.7ft  -  3s 11 13 mph 1018.3mb 54f 59f
2:50pm 0.7ft  -  3s 9 11 mph 1018.6mb 54f 58f
2:20pm 0.7ft  -  3s 9
mph
1018.7mb 54f 57f
1:50pm 0.7ft  -  3s 11
mph
1018.9mb 54f 58f
1:20pm 1ft 4s 3s 11 13 mph 1019.1mb 54f 59f
12:50pm 1ft 4s 3s 13 16 mph 1019.2mb 53f 60f
11:50am 1ft 4s 3s 11 13 mph 1019.2mb 53f 58f
11:20am 1ft 4s 3s 9 13 mph 1019.3mb 53f 57f
10:50am 1ft 3s 3s 13 16 mph 1019.1mb 52f 56f
10:20am 1ft 3s 3s 11 13 mph 1018.8mb 52f 55f
9:50am 1ft 3s 3s 11 13 mph 1018.8mb 52f 55f
9:20am 1ft 3s 3s 13 16 mph 1018.5mb 52f 55f
8:50am 1ft 3s 3s 11 13 mph 1018.3mb 52f 55f
8:20am 1.3ft 3s 3s 13 18 mph 1018mb 52f 55f
7:50am 1.3ft 3s 3s 16 18 mph 1017.8mb 52f 55f
7:20am 1.3ft 3s 3s 18 22 mph 1017.4mb 52f 55f
6:50am 1.3ft 3s 3s 18 22 mph 1017.3mb 52f 56f
6:20am 1.6ft 3s 3s 18 20 mph 1017.1mb 52f 56f
5:50am 1.6ft 3s 3s 16 20 mph 1017.2mb 52f 56f
5:20am 2ft 4s 3s 18 22 mph 1017mb 52f 58f
4:50am 2ft 4s 3s 20 25 mph 1016.9mb 52f 58f
4:20am 2.5ft 4s 4s 20 22 mph 1016.9mb 52f 57f
3:50am 3ft 4s 4s 22 25 mph 1016.7mb 52f 58f
3:20am 3.5ft 5s 4s 22 27 mph 1016.5mb 52f 58f
2:50am 3.5ft 5s 4s 25 29 mph 1016.2mb 52f 57f
2:20am 3.5ft 5s 4s 25 29 mph 1016.1mb 52f 56f
1:50am 4.5ft 5s 4s 27 31 mph 1015.7mb 52f 57f
1:20am 4.5ft 5s 5s 31 36 mph 1015.3mb 53f 57f
12:50am 4.5ft 5s 5s 31 36 mph 1014.9mb 53f 57f
12:20am 3.5ft 5s 5s 29 36 mph 1015mb 53f 58f
Wed 08/27 11:50pm 3.5ft 5s 4s 29 34 mph 1015.4mb 53f 58f
11:20pm 3.5ft 5s 4s 27 34 mph 1015.4mb 53f 58f
10:50pm 3.5ft 5s 4s 27 31 mph 1015.6mb 53f 57f
10:20pm 3.5ft 5s 4s 25 29 mph 1015.8mb 53f 57f
9:50pm 3.5ft 5s 4s 27 29 mph 1015.8mb 53f 56f
9:20pm 3.5ft 5s 4s 31 40 mph 1015.4mb 53f 56f
8:50pm 3.5ft 5s 4s 27 31 mph 1015.5mb 53f 56f
8:20pm 3.5ft 5s 4s 27 31 mph 1015.1mb 53f 57f
7:50pm 3ft 4s 4s 27 31 mph 1014.8mb 53f 58f
7:20pm 2.5ft 4s 4s 25 29 mph 1014.9mb 53f 60f
6:50pm 3ft 4s 4s 22 27 mph 1015mb 53f 57f
6:20pm 2.5ft 4s 3s 25 31 mph 1015.1mb 54f 57f
5:50pm 2ft 3s 3s 25 29 mph 1015.2mb 54f 57f
5:20pm 1.6ft 3s 3s 25 29 mph 1015.3mb 55f 56f
4:50pm 1.6ft 3s 3s 20 25 mph 1015.8mb 55f 55f
4:20pm 1.6ft 4s 3s 20 25 mph 1016.4mb 55f 56f
3:20pm 1.6ft 3s 4s 13 16 mph 1016.8mb 56f 58f
2:50pm 1.6ft 4s 4s 9 11 mph 1017.1mb 55f 56f
2:20pm 1.3ft 4s 4s 11 13 mph 1017.3mb 54f 55f
1:50pm 1.3ft 7s 4s 7 9 mph 1017.4mb 53f 55f
1:20pm 1.3ft 6s 4s 9
mph
1017.6mb 53f 54f
12:50pm 1.3ft 4s 4s 9 11 mph 1017.7mb 53f 54f
12:20pm 1.3ft 4s 4s 9 11 mph 1017.8mb 53f 54f
11:50am 1ft 4s 4s 9 11 mph 1017.9mb 53f 53f
11:20am 1ft 4s 4s 11 13 mph 1017.8mb 53f 53f
10:50am 1ft 4s 4s 11 13 mph 1017.9mb 53f 53f
10:20am 1.3ft 4s 4s 11
mph
1017.8mb 53f 53f
9:50am 1.3ft 4s 4s 11 13 mph 1017.7mb 53f 53f
9:20am 1.3ft 4s 4s 11 13 mph 1017.5mb 53f 53f
8:50am 1.3ft 4s 4s 11 13 mph 1017.3mb 53f 53f
8:20am 1.3ft 4s 3s 11 13 mph 1017.2mb 52f 53f
7:50am 1.3ft 4s 3s 13
mph
1017mb 52f 52f
7:20am 1.3ft 4s 3s 13 16 mph 1016.9mb 52f 52f
6:50am 1.3ft 3s 3s 13 16 mph 1016.6mb 52f 52f
6:20am 1.6ft 3s 3s 13 16 mph 1016.2mb 52f 53f
5:50am 1.6ft 3s 3s 13 18 mph 1016.2mb 52f 53f
5:20am 1.6ft 3s 3s 16
mph
1015.9mb 52f 53f
4:50am 1.3ft 3s 3s 13 16 mph 1015.9mb 52f 53f
4:20am 1.6ft 3s 3s 16 18 mph 1015.8mb 53f 53f
3:50am 1.6ft 3s 3s 13 16 mph 1015.7mb 53f 53f
3:20am 1.6ft 4s 3s 16 18 mph 1015.5mb 53f 53f
2:50am 1.6ft 4s 3s 16 18 mph 1015.4mb 53f 54f
2:20am 1.6ft 4s 3s 16 18 mph 1015.4mb 53f 54f
1:50am 1.6ft 3s 3s 18 20 mph 1015.2mb 53f 55f
1:20am 1.6ft 4s 3s 13 16 mph 1015.3mb 53f 55f
12:50am 1.6ft 4s 3s 16 18 mph 1015.1mb 53f 54f
12:20am 2ft 4s 4s 16 18 mph 1015.1mb 53f 56f
Tue 08/26 11:50pm 2ft 4s 4s 18 22 mph 1014.9mb 53f 57f
11:20pm 2ft 4s 4s 18 20 mph 1015.1mb 53f 56f
10:50pm 2.5ft 4s 4s 20 22 mph 1014.9mb 52f 55f
10:20pm 2ft 4s 4s 20 25 mph 1015.1mb 53f 55f
9:50pm 2ft 4s 3s 18 22 mph 1015.4mb 53f 54f
9:20pm 1.6ft 4s 3s 18 22 mph 1015.2mb 54f 55f
8:50pm 1.6ft 3s 3s 18 20 mph 1015.1mb 54f 56f
8:20pm 1.6ft 3s 3s 16 20 mph 1015.1mb 55f 56f
7:50pm 1.3ft 3s 3s 16 18 mph 1015mb 55f 56f
7:20pm 1ft 3s 3s 13 16 mph 1015.1mb 55f 56f
6:50pm 1ft 3s 3s 9 11 mph 1015.5mb 55f 57f
6:20pm 0.7ft  -  3s 11 13 mph 1015.5mb 55f 56f
5:50pm 0.7ft  -  4s 11 13 mph 1015.5mb 55f 56f
5:20pm 0.7ft  -  4s 11 13 mph 1015.7mb 56f 56f
4:50pm 0.7ft  -  4s 7
mph
1016mb 56f 57f
3:50pm 1ft 6s 5s 7 9 mph 1016.4mb 57f 58f
3:20pm 1ft 6s 5s 7
mph
1016.8mb 58f 59f
2:50pm 1ft 6s 5s 2 4 mph 1017mb 57f 59f
2:20pm 1ft 6s 5s 2 4 mph 1017.3mb 57f 58f
1:50pm 1ft 6s 6s 4
mph
1017.7mb 55f 57f
1:20pm 0.7ft  -  4s 2
mph
1017.8mb 54f 56f
12:50pm 0.7ft  -  4s 4
mph
1017.9mb 55f 56f
12:20pm 0.7ft  -  5s 2
mph
1018mb 55f 56f
11:50am 0.7ft  -  5s 2
mph
1018.1mb 54f 56f
11:20am 0.7ft  -  4s  -  mph 1018.3mb 53f 57f
10:50am 0.3ft  -  4s  -  mph 1018.1mb 54f 58f
10:20am 0.3ft  -  5s  -  mph 1018.2mb 53f 57f
9:50am 0.3ft  -  4s  -  mph 1018.2mb 53f 58f
9:20am 0.3ft  -  3s  -  mph 1018.1mb 53f 55f
8:50am 0.3ft  -  3s  -  mph 1017.9mb 53f 55f
8:20am 0.3ft  -  3s  -  mph 1018mb 53f 53f
7:50am 0.7ft  -  3s 2 4 mph 1017.8mb 53f 53f
7:20am 0.7ft  -  3s 2
mph
1017.4mb 52f 53f